sensor_id;sensor_type;location;lat;lon;timestamp;P1;durP1;ratioP1;P2;durP2;ratioP2
38972;SDS011;25333;50.762;4.470;2022-07-12T00:01:17;3.17;;;1.90;;
38972;SDS011;25333;50.762;4.470;2022-07-12T00:03:43;3.00;;;2.17;;
38972;SDS011;25333;50.762;4.470;2022-07-12T00:06:10;3.47;;;1.65;;
38972;SDS011;25333;50.762;4.470;2022-07-12T00:08:36;3.30;;;2.30;;
38972;SDS011;25333;50.762;4.470;2022-07-12T00:11:02;2.67;;;2.03;;
38972;SDS011;25333;50.762;4.470;2022-07-12T00:13:28;3.40;;;1.77;;
38972;SDS011;25333;50.762;4.470;2022-07-12T00:15:55;3.22;;;1.70;;
38972;SDS011;25333;50.762;4.470;2022-07-12T00:18:23;2.50;;;1.75;;
38972;SDS011;25333;50.762;4.470;2022-07-12T00:20:49;2.35;;;1.77;;
38972;SDS011;25333;50.762;4.470;2022-07-12T00:23:15;3.30;;;1.73;;
38972;SDS011;25333;50.762;4.470;2022-07-12T00:25:41;2.88;;;2.10;;
38972;SDS011;25333;50.762;4.470;2022-07-12T00:28:07;3.37;;;2.10;;
38972;SDS011;25333;50.762;4.470;2022-07-12T00:30:33;2.45;;;2.00;;
38972;SDS011;25333;50.762;4.470;2022-07-12T00:32:58;2.92;;;1.73;;
38972;SDS011;25333;50.762;4.470;2022-07-12T00:35:24;3.90;;;1.87;;
38972;SDS011;25333;50.762;4.470;2022-07-12T00:37:50;2.50;;;1.90;;
38972;SDS011;25333;50.762;4.470;2022-07-12T00:40:16;2.28;;;1.60;;
38972;SDS011;25333;50.762;4.470;2022-07-12T00:42:42;2.47;;;1.87;;
38972;SDS011;25333;50.762;4.470;2022-07-12T00:45:08;2.65;;;2.08;;
38972;SDS011;25333;50.762;4.470;2022-07-12T00:47:35;2.40;;;1.67;;
38972;SDS011;25333;50.762;4.470;2022-07-12T00:50:06;3.60;;;1.95;;
38972;SDS011;25333;50.762;4.470;2022-07-12T00:52:33;2.40;;;1.57;;
38972;SDS011;25333;50.762;4.470;2022-07-12T00:55:00;4.03;;;2.30;;
38972;SDS011;25333;50.762;4.470;2022-07-12T00:57:25;2.83;;;2.07;;
38972;SDS011;25333;50.762;4.470;2022-07-12T00:59:52;3.08;;;1.60;;
38972;SDS011;25333;50.762;4.470;2022-07-12T01:02:18;2.67;;;1.50;;
38972;SDS011;25333;50.762;4.470;2022-07-12T01:04:44;3.10;;;1.67;;
38972;SDS011;25333;50.762;4.470;2022-07-12T01:07:11;1.70;;;1.53;;
38972;SDS011;25333;50.762;4.470;2022-07-12T01:09:37;5.00;;;2.13;;
38972;SDS011;25333;50.762;4.470;2022-07-12T01:12:04;2.45;;;1.65;;
38972;SDS011;25333;50.762;4.470;2022-07-12T01:14:29;3.70;;;2.20;;
38972;SDS011;25333;50.762;4.470;2022-07-12T01:16:56;3.60;;;1.60;;
38972;SDS011;25333;50.762;4.470;2022-07-12T01:19:22;2.85;;;1.90;;
38972;SDS011;25333;50.762;4.470;2022-07-12T01:21:49;2.03;;;1.52;;
38972;SDS011;25333;50.762;4.470;2022-07-12T01:24:18;2.70;;;1.93;;
38972;SDS011;25333;50.762;4.470;2022-07-12T01:26:44;2.33;;;1.55;;
38972;SDS011;25333;50.762;4.470;2022-07-12T01:29:11;3.35;;;1.90;;
38972;SDS011;25333;50.762;4.470;2022-07-12T01:31:38;2.72;;;2.05;;
38972;SDS011;25333;50.762;4.470;2022-07-12T01:34:04;3.35;;;2.13;;
38972;SDS011;25333;50.762;4.470;2022-07-12T01:36:31;3.50;;;1.90;;
38972;SDS011;25333;50.762;4.470;2022-07-12T01:38:58;3.22;;;2.30;;
38972;SDS011;25333;50.762;4.470;2022-07-12T01:41:24;3.47;;;1.90;;
38972;SDS011;25333;50.762;4.470;2022-07-12T01:43:50;2.42;;;1.67;;
38972;SDS011;25333;50.762;4.470;2022-07-12T01:46:17;2.33;;;1.70;;
38972;SDS011;25333;50.762;4.470;2022-07-12T01:48:42;2.95;;;2.10;;
38972;SDS011;25333;50.762;4.470;2022-07-12T01:51:08;4.13;;;2.72;;
38972;SDS011;25333;50.762;4.470;2022-07-12T01:53:34;2.20;;;1.70;;
38972;SDS011;25333;50.762;4.470;2022-07-12T01:56:02;2.28;;;1.63;;
38972;SDS011;25333;50.762;4.470;2022-07-12T01:58:28;2.47;;;1.65;;
38972;SDS011;25333;50.762;4.470;2022-07-12T02:00:55;3.50;;;2.00;;
38972;SDS011;25333;50.762;4.470;2022-07-12T02:03:21;4.18;;;2.60;;
38972;SDS011;25333;50.762;4.470;2022-07-12T02:05:47;4.55;;;2.67;;
38972;SDS011;25333;50.762;4.470;2022-07-12T02:08:13;3.10;;;2.20;;
38972;SDS011;25333;50.762;4.470;2022-07-12T02:10:39;2.55;;;1.88;;
38972;SDS011;25333;50.762;4.470;2022-07-12T02:13:06;3.13;;;2.30;;
38972;SDS011;25333;50.762;4.470;2022-07-12T02:15:32;2.67;;;2.10;;
38972;SDS011;25333;50.762;4.470;2022-07-12T02:17:57;3.53;;;2.63;;
38972;SDS011;25333;50.762;4.470;2022-07-12T02:20:23;3.07;;;2.40;;
38972;SDS011;25333;50.762;4.470;2022-07-12T02:22:49;3.63;;;2.50;;
38972;SDS011;25333;50.762;4.470;2022-07-12T02:25:15;3.17;;;2.43;;
38972;SDS011;25333;50.762;4.470;2022-07-12T02:27:41;3.22;;;2.17;;
38972;SDS011;25333;50.762;4.470;2022-07-12T02:30:08;2.00;;;1.60;;
38972;SDS011;25333;50.762;4.470;2022-07-12T02:32:35;3.03;;;1.92;;
38972;SDS011;25333;50.762;4.470;2022-07-12T02:35:02;3.08;;;2.25;;
38972;SDS011;25333;50.762;4.470;2022-07-12T02:37:29;2.20;;;1.60;;
38972;SDS011;25333;50.762;4.470;2022-07-12T02:39:54;2.50;;;2.30;;
38972;SDS011;25333;50.762;4.470;2022-07-12T02:42:40;3.17;;;2.03;;
38972;SDS011;25333;50.762;4.470;2022-07-12T02:45:06;3.08;;;2.25;;
38972;SDS011;25333;50.762;4.470;2022-07-12T02:47:32;2.90;;;2.17;;
38972;SDS011;25333;50.762;4.470;2022-07-12T02:50:00;2.67;;;1.75;;
38972;SDS011;25333;50.762;4.470;2022-07-12T02:52:26;2.78;;;2.13;;
38972;SDS011;25333;50.762;4.470;2022-07-12T02:54:51;2.80;;;1.80;;
38972;SDS011;25333;50.762;4.470;2022-07-12T02:57:17;2.20;;;1.93;;
38972;SDS011;25333;50.762;4.470;2022-07-12T02:59:42;3.08;;;2.00;;
38972;SDS011;25333;50.762;4.470;2022-07-12T03:02:08;3.50;;;2.20;;
38972;SDS011;25333;50.762;4.470;2022-07-12T03:04:34;3.13;;;2.50;;
38972;SDS011;25333;50.762;4.470;2022-07-12T03:06:59;3.20;;;2.40;;
38972;SDS011;25333;50.762;4.470;2022-07-12T03:09:25;3.67;;;2.10;;
38972;SDS011;25333;50.762;4.470;2022-07-12T03:11:51;2.83;;;2.35;;
38972;SDS011;25333;50.762;4.470;2022-07-12T03:14:16;3.03;;;1.63;;
38972;SDS011;25333;50.762;4.470;2022-07-12T03:16:43;3.05;;;2.13;;
38972;SDS011;25333;50.762;4.470;2022-07-12T03:19:09;2.85;;;1.95;;
38972;SDS011;25333;50.762;4.470;2022-07-12T03:21:34;2.37;;;1.63;;
38972;SDS011;25333;50.762;4.470;2022-07-12T03:24:00;2.90;;;1.80;;
38972;SDS011;25333;50.762;4.470;2022-07-12T03:26:25;2.93;;;1.77;;
38972;SDS011;25333;50.762;4.470;2022-07-12T03:28:51;3.05;;;2.25;;
38972;SDS011;25333;50.762;4.470;2022-07-12T03:31:17;3.10;;;1.95;;
38972;SDS011;25333;50.762;4.470;2022-07-12T03:33:43;2.03;;;1.48;;
38972;SDS011;25333;50.762;4.470;2022-07-12T03:36:08;3.95;;;2.15;;
38972;SDS011;25333;50.762;4.470;2022-07-12T03:38:34;2.73;;;2.10;;
38972;SDS011;25333;50.762;4.470;2022-07-12T03:41:01;2.42;;;1.65;;
38972;SDS011;25333;50.762;4.470;2022-07-12T03:43:27;2.83;;;1.93;;
38972;SDS011;25333;50.762;4.470;2022-07-12T03:45:53;3.17;;;2.35;;
38972;SDS011;25333;50.762;4.470;2022-07-12T03:48:19;3.00;;;1.93;;
38972;SDS011;25333;50.762;4.470;2022-07-12T03:50:44;2.53;;;1.40;;
38972;SDS011;25333;50.762;4.470;2022-07-12T03:53:13;2.65;;;1.90;;
38972;SDS011;25333;50.762;4.470;2022-07-12T03:55:38;2.53;;;1.98;;
38972;SDS011;25333;50.762;4.470;2022-07-12T03:58:04;2.63;;;2.03;;
38972;SDS011;25333;50.762;4.470;2022-07-12T04:00:30;3.97;;;2.40;;
38972;SDS011;25333;50.762;4.470;2022-07-12T04:02:56;3.78;;;2.67;;
38972;SDS011;25333;50.762;4.470;2022-07-12T04:05:21;2.90;;;1.70;;
38972;SDS011;25333;50.762;4.470;2022-07-12T04:07:51;3.05;;;2.03;;
38972;SDS011;25333;50.762;4.470;2022-07-12T04:10:18;2.60;;;1.70;;
38972;SDS011;25333;50.762;4.470;2022-07-12T04:12:43;4.60;;;2.03;;
38972;SDS011;25333;50.762;4.470;2022-07-12T04:15:09;3.35;;;1.85;;
38972;SDS011;25333;50.762;4.470;2022-07-12T04:17:35;2.00;;;1.50;;
38972;SDS011;25333;50.762;4.470;2022-07-12T04:20:00;2.80;;;2.20;;
38972;SDS011;25333;50.762;4.470;2022-07-12T04:22:26;3.60;;;1.90;;
38972;SDS011;25333;50.762;4.470;2022-07-12T04:24:52;3.03;;;2.05;;
38972;SDS011;25333;50.762;4.470;2022-07-12T04:27:17;3.60;;;1.87;;
38972;SDS011;25333;50.762;4.470;2022-07-12T04:29:43;3.00;;;1.90;;
38972;SDS011;25333;50.762;4.470;2022-07-12T04:32:09;3.42;;;1.67;;
38972;SDS011;25333;50.762;4.470;2022-07-12T04:34:34;3.57;;;2.07;;
38972;SDS011;25333;50.762;4.470;2022-07-12T04:37:00;3.03;;;2.10;;
38972;SDS011;25333;50.762;4.470;2022-07-12T04:39:25;2.95;;;2.10;;
38972;SDS011;25333;50.762;4.470;2022-07-12T04:41:51;2.88;;;2.30;;
38972;SDS011;25333;50.762;4.470;2022-07-12T04:44:17;2.20;;;1.80;;
38972;SDS011;25333;50.762;4.470;2022-07-12T04:46:42;2.10;;;1.57;;
38972;SDS011;25333;50.762;4.470;2022-07-12T04:49:08;2.22;;;1.85;;
38972;SDS011;25333;50.762;4.470;2022-07-12T04:51:34;3.28;;;1.77;;
38972;SDS011;25333;50.762;4.470;2022-07-12T04:53:59;2.83;;;2.00;;
38972;SDS011;25333;50.762;4.470;2022-07-12T04:56:25;3.77;;;2.40;;
38972;SDS011;25333;50.762;4.470;2022-07-12T04:58:50;2.70;;;1.80;;
38972;SDS011;25333;50.762;4.470;2022-07-12T05:01:16;1.55;;;1.33;;
38972;SDS011;25333;50.762;4.470;2022-07-12T05:03:42;2.80;;;2.00;;
38972;SDS011;25333;50.762;4.470;2022-07-12T05:06:08;2.87;;;2.00;;
38972;SDS011;25333;50.762;4.470;2022-07-12T05:08:33;2.95;;;2.00;;
38972;SDS011;25333;50.762;4.470;2022-07-12T05:10:59;3.53;;;2.40;;
38972;SDS011;25333;50.762;4.470;2022-07-12T05:13:25;4.05;;;2.38;;
38972;SDS011;25333;50.762;4.470;2022-07-12T05:15:50;4.70;;;3.25;;
38972;SDS011;25333;50.762;4.470;2022-07-12T05:18:16;3.08;;;2.78;;
38972;SDS011;25333;50.762;4.470;2022-07-12T05:20:42;3.93;;;2.60;;
38972;SDS011;25333;50.762;4.470;2022-07-12T05:23:07;20.67;;;7.10;;
38972;SDS011;25333;50.762;4.470;2022-07-12T05:25:33;5.55;;;3.47;;
38972;SDS011;25333;50.762;4.470;2022-07-12T05:27:59;6.50;;;3.83;;
38972;SDS011;25333;50.762;4.470;2022-07-12T05:30:24;7.53;;;3.17;;
38972;SDS011;25333;50.762;4.470;2022-07-12T05:32:51;8.13;;;4.40;;
38972;SDS011;25333;50.762;4.470;2022-07-12T05:35:17;6.95;;;4.43;;
38972;SDS011;25333;50.762;4.470;2022-07-12T05:37:50;5.97;;;4.77;;
38972;SDS011;25333;50.762;4.470;2022-07-12T05:40:16;6.97;;;4.38;;
38972;SDS011;25333;50.762;4.470;2022-07-12T05:42:43;6.00;;;4.57;;
38972;SDS011;25333;50.762;4.470;2022-07-12T05:45:10;6.90;;;4.90;;
38972;SDS011;25333;50.762;4.470;2022-07-12T05:47:36;6.18;;;5.10;;
38972;SDS011;25333;50.762;4.470;2022-07-12T05:50:02;4.90;;;4.13;;
38972;SDS011;25333;50.762;4.470;2022-07-12T05:52:29;6.40;;;5.68;;
38972;SDS011;25333;50.762;4.470;2022-07-12T05:55:13;7.82;;;6.03;;
38972;SDS011;25333;50.762;4.470;2022-07-12T05:57:39;7.73;;;6.03;;
38972;SDS011;25333;50.762;4.470;2022-07-12T06:00:05;7.00;;;6.30;;
38972;SDS011;25333;50.762;4.470;2022-07-12T06:02:31;7.10;;;5.78;;
38972;SDS011;25333;50.762;4.470;2022-07-12T06:04:56;7.83;;;6.30;;
38972;SDS011;25333;50.762;4.470;2022-07-12T06:07:22;10.67;;;7.33;;
38972;SDS011;25333;50.762;4.470;2022-07-12T06:09:48;9.77;;;7.57;;
38972;SDS011;25333;50.762;4.470;2022-07-12T06:12:13;10.15;;;7.25;;
38972;SDS011;25333;50.762;4.470;2022-07-12T06:14:39;12.02;;;8.52;;
38972;SDS011;25333;50.762;4.470;2022-07-12T06:17:04;8.07;;;7.28;;
38972;SDS011;25333;50.762;4.470;2022-07-12T06:19:33;8.93;;;7.25;;
38972;SDS011;25333;50.762;4.470;2022-07-12T06:21:59;8.95;;;7.15;;
38972;SDS011;25333;50.762;4.470;2022-07-12T06:24:26;8.27;;;6.97;;
38972;SDS011;25333;50.762;4.470;2022-07-12T06:26:51;11.82;;;8.00;;
38972;SDS011;25333;50.762;4.470;2022-07-12T06:29:17;8.10;;;6.63;;
38972;SDS011;25333;50.762;4.470;2022-07-12T06:31:43;8.40;;;6.73;;
38972;SDS011;25333;50.762;4.470;2022-07-12T06:34:08;9.10;;;6.43;;
38972;SDS011;25333;50.762;4.470;2022-07-12T06:36:34;7.77;;;6.47;;
38972;SDS011;25333;50.762;4.470;2022-07-12T06:38:59;8.10;;;6.73;;
38972;SDS011;25333;50.762;4.470;2022-07-12T06:41:25;9.53;;;6.93;;
38972;SDS011;25333;50.762;4.470;2022-07-12T06:43:51;8.82;;;6.07;;
38972;SDS011;25333;50.762;4.470;2022-07-12T06:46:16;7.72;;;6.63;;
38972;SDS011;25333;50.762;4.470;2022-07-12T06:48:42;10.02;;;6.95;;
38972;SDS011;25333;50.762;4.470;2022-07-12T06:51:07;6.85;;;5.72;;
38972;SDS011;25333;50.762;4.470;2022-07-12T06:53:33;7.90;;;6.50;;
38972;SDS011;25333;50.762;4.470;2022-07-12T06:55:59;8.00;;;6.37;;
38972;SDS011;25333;50.762;4.470;2022-07-12T06:58:25;7.65;;;6.47;;
38972;SDS011;25333;50.762;4.470;2022-07-12T07:00:50;7.55;;;6.03;;
38972;SDS011;25333;50.762;4.470;2022-07-12T07:03:16;9.43;;;6.63;;
38972;SDS011;25333;50.762;4.470;2022-07-12T07:05:42;7.90;;;7.10;;
38972;SDS011;25333;50.762;4.470;2022-07-12T07:08:07;7.53;;;6.38;;
38972;SDS011;25333;50.762;4.470;2022-07-12T07:10:33;8.27;;;6.03;;
38972;SDS011;25333;50.762;4.470;2022-07-12T07:12:59;8.30;;;6.57;;
38972;SDS011;25333;50.762;4.470;2022-07-12T07:15:25;8.23;;;6.25;;
38972;SDS011;25333;50.762;4.470;2022-07-12T07:17:51;9.77;;;6.53;;
38972;SDS011;25333;50.762;4.470;2022-07-12T07:20:16;9.10;;;5.60;;
38972;SDS011;25333;50.762;4.470;2022-07-12T07:22:42;9.30;;;6.30;;
38972;SDS011;25333;50.762;4.470;2022-07-12T07:25:08;7.67;;;6.37;;
38972;SDS011;25333;50.762;4.470;2022-07-12T07:27:33;6.03;;;5.43;;
38972;SDS011;25333;50.762;4.470;2022-07-12T07:29:59;8.25;;;6.15;;
38972;SDS011;25333;50.762;4.470;2022-07-12T07:32:44;8.68;;;6.38;;
38972;SDS011;25333;50.762;4.470;2022-07-12T07:35:10;7.38;;;6.55;;
38972;SDS011;25333;50.762;4.470;2022-07-12T07:37:36;8.13;;;6.00;;
38972;SDS011;25333;50.762;4.470;2022-07-12T07:40:02;5.72;;;5.10;;
38972;SDS011;25333;50.762;4.470;2022-07-12T07:42:28;5.63;;;5.03;;
38972;SDS011;25333;50.762;4.470;2022-07-12T07:44:54;6.93;;;6.18;;
38972;SDS011;25333;50.762;4.470;2022-07-12T07:47:19;6.10;;;5.40;;
38972;SDS011;25333;50.762;4.470;2022-07-12T07:49:45;5.90;;;5.13;;
38972;SDS011;25333;50.762;4.470;2022-07-12T07:52:11;6.20;;;5.53;;
38972;SDS011;25333;50.762;4.470;2022-07-12T07:54:36;6.65;;;4.88;;
38972;SDS011;25333;50.762;4.470;2022-07-12T07:57:02;6.93;;;5.07;;
38972;SDS011;25333;50.762;4.470;2022-07-12T07:59:28;8.60;;;5.53;;
38972;SDS011;25333;50.762;4.470;2022-07-12T08:01:54;7.22;;;4.80;;
38972;SDS011;25333;50.762;4.470;2022-07-12T08:04:20;7.60;;;5.85;;
38972;SDS011;25333;50.762;4.470;2022-07-12T08:06:47;5.20;;;4.38;;
38972;SDS011;25333;50.762;4.470;2022-07-12T08:09:14;5.97;;;4.70;;
38972;SDS011;25333;50.762;4.470;2022-07-12T08:11:40;6.60;;;4.95;;
38972;SDS011;25333;50.762;4.470;2022-07-12T08:14:06;7.60;;;5.45;;
38972;SDS011;25333;50.762;4.470;2022-07-12T08:16:34;8.63;;;4.72;;
38972;SDS011;25333;50.762;4.470;2022-07-12T08:19:00;7.25;;;5.50;;
38972;SDS011;25333;50.762;4.470;2022-07-12T08:21:27;6.68;;;5.03;;
38972;SDS011;25333;50.762;4.470;2022-07-12T08:23:53;5.63;;;4.72;;
38972;SDS011;25333;50.762;4.470;2022-07-12T08:26:19;7.35;;;5.32;;
38972;SDS011;25333;50.762;4.470;2022-07-12T08:28:45;7.05;;;4.88;;
38972;SDS011;25333;50.762;4.470;2022-07-12T08:31:11;5.33;;;4.53;;
38972;SDS011;25333;50.762;4.470;2022-07-12T08:33:39;7.45;;;5.07;;
38972;SDS011;25333;50.762;4.470;2022-07-12T08:36:06;6.90;;;4.75;;
38972;SDS011;25333;50.762;4.470;2022-07-12T08:38:33;6.33;;;4.93;;
38972;SDS011;25333;50.762;4.470;2022-07-12T08:41:01;5.18;;;4.68;;
38972;SDS011;25333;50.762;4.470;2022-07-12T08:43:28;5.68;;;4.63;;
38972;SDS011;25333;50.762;4.470;2022-07-12T08:45:53;6.32;;;4.72;;
38972;SDS011;25333;50.762;4.470;2022-07-12T08:48:19;6.47;;;4.28;;
38972;SDS011;25333;50.762;4.470;2022-07-12T08:50:59;4.53;;;3.78;;
38972;SDS011;25333;50.762;4.470;2022-07-12T08:53:26;6.35;;;4.13;;
38972;SDS011;25333;50.762;4.470;2022-07-12T08:55:52;5.88;;;4.30;;
38972;SDS011;25333;50.762;4.470;2022-07-12T08:58:17;6.82;;;4.07;;
38972;SDS011;25333;50.762;4.470;2022-07-12T09:00:43;5.57;;;4.30;;
38972;SDS011;25333;50.762;4.470;2022-07-12T09:03:09;7.57;;;5.07;;
38972;SDS011;25333;50.762;4.470;2022-07-12T09:05:37;4.68;;;3.92;;
38972;SDS011;25333;50.762;4.470;2022-07-12T09:08:07;6.20;;;4.47;;
38972;SDS011;25333;50.762;4.470;2022-07-12T09:10:35;5.18;;;4.20;;
38972;SDS011;25333;50.762;4.470;2022-07-12T09:13:17;4.78;;;4.28;;
38972;SDS011;25333;50.762;4.470;2022-07-12T09:15:43;5.65;;;4.15;;
38972;SDS011;25333;50.762;4.470;2022-07-12T09:18:11;4.63;;;3.85;;
38972;SDS011;25333;50.762;4.470;2022-07-12T09:20:42;5.75;;;4.45;;
38972;SDS011;25333;50.762;4.470;2022-07-12T09:23:15;5.72;;;4.30;;
38972;SDS011;25333;50.762;4.470;2022-07-12T09:25:43;8.07;;;4.53;;
38972;SDS011;25333;50.762;4.470;2022-07-12T09:28:10;6.83;;;4.43;;
38972;SDS011;25333;50.762;4.470;2022-07-12T09:30:37;5.85;;;4.78;;
38972;SDS011;25333;50.762;4.470;2022-07-12T09:33:13;4.67;;;4.13;;
38972;SDS011;25333;50.762;4.470;2022-07-12T09:36:02;5.55;;;4.50;;
38972;SDS011;25333;50.762;4.470;2022-07-12T09:38:31;5.50;;;3.35;;
38972;SDS011;25333;50.762;4.470;2022-07-12T09:41:09;4.72;;;3.25;;
38972;SDS011;25333;50.762;4.470;2022-07-12T09:43:41;4.57;;;3.13;;
38972;SDS011;25333;50.762;4.470;2022-07-12T09:46:08;4.57;;;3.30;;
38972;SDS011;25333;50.762;4.470;2022-07-12T09:48:35;4.93;;;3.60;;
38972;SDS011;25333;50.762;4.470;2022-07-12T09:51:02;5.00;;;3.42;;
38972;SDS011;25333;50.762;4.470;2022-07-12T09:55:56;6.00;;;3.55;;
38972;SDS011;25333;50.762;4.470;2022-07-12T09:58:24;5.55;;;3.88;;
38972;SDS011;25333;50.762;4.470;2022-07-12T10:00:52;3.90;;;3.28;;
38972;SDS011;25333;50.762;4.470;2022-07-12T10:03:20;3.92;;;2.85;;
38972;SDS011;25333;50.762;4.470;2022-07-12T10:05:47;3.65;;;3.33;;
38972;SDS011;25333;50.762;4.470;2022-07-12T10:08:16;5.03;;;3.15;;
38972;SDS011;25333;50.762;4.470;2022-07-12T10:10:42;5.75;;;3.72;;
38972;SDS011;25333;50.762;4.470;2022-07-12T10:13:08;8.02;;;3.70;;
38972;SDS011;25333;50.762;4.470;2022-07-12T10:15:34;3.67;;;2.50;;
38972;SDS011;25333;50.762;4.470;2022-07-12T10:18:02;3.53;;;2.80;;
38972;SDS011;25333;50.762;4.470;2022-07-12T10:20:30;4.50;;;3.00;;
38972;SDS011;25333;50.762;4.470;2022-07-12T10:23:26;4.78;;;3.30;;
38972;SDS011;25333;50.762;4.470;2022-07-12T10:25:45;4.90;;;3.60;;
38972;SDS011;25333;50.762;4.470;2022-07-12T10:28:13;3.72;;;3.13;;
38972;SDS011;25333;50.762;4.470;2022-07-12T10:30:43;5.00;;;3.70;;
38972;SDS011;25333;50.762;4.470;2022-07-12T10:33:16;3.47;;;3.17;;
38972;SDS011;25333;50.762;4.470;2022-07-12T10:36:05;5.75;;;3.13;;
38972;SDS011;25333;50.762;4.470;2022-07-12T10:38:34;3.05;;;2.45;;
38972;SDS011;25333;50.762;4.470;2022-07-12T10:41:19;3.00;;;2.22;;
38972;SDS011;25333;50.762;4.470;2022-07-12T10:43:56;4.32;;;2.22;;
38972;SDS011;25333;50.762;4.470;2022-07-12T10:46:31;3.38;;;2.42;;
38972;SDS011;25333;50.762;4.470;2022-07-12T10:57:07;3.38;;;2.28;;
38972;SDS011;25333;50.762;4.470;2022-07-12T10:59:34;3.38;;;2.30;;
38972;SDS011;25333;50.762;4.470;2022-07-12T11:02:03;2.70;;;2.17;;
38972;SDS011;25333;50.762;4.470;2022-07-12T11:04:30;2.93;;;2.13;;
38972;SDS011;25333;50.762;4.470;2022-07-12T11:06:56;3.53;;;2.73;;
38972;SDS011;25333;50.762;4.470;2022-07-12T11:09:26;3.80;;;2.80;;
38972;SDS011;25333;50.762;4.470;2022-07-12T11:11:53;3.80;;;2.42;;
38972;SDS011;25333;50.762;4.470;2022-07-12T11:14:26;4.40;;;2.27;;
38972;SDS011;25333;50.762;4.470;2022-07-12T11:16:58;2.45;;;1.98;;
38972;SDS011;25333;50.762;4.470;2022-07-12T11:19:25;2.85;;;1.90;;
38972;SDS011;25333;50.762;4.470;2022-07-12T11:21:55;3.83;;;2.13;;
38972;SDS011;25333;50.762;4.470;2022-07-12T11:24:28;3.17;;;2.30;;
38972;SDS011;25333;50.762;4.470;2022-07-12T11:26:55;3.15;;;2.28;;
38972;SDS011;25333;50.762;4.470;2022-07-12T11:29:22;4.03;;;2.28;;
38972;SDS011;25333;50.762;4.470;2022-07-12T11:31:48;2.92;;;2.05;;
38972;SDS011;25333;50.762;4.470;2022-07-12T11:34:23;3.72;;;2.15;;
38972;SDS011;25333;50.762;4.470;2022-07-12T11:36:50;2.50;;;1.85;;
38972;SDS011;25333;50.762;4.470;2022-07-12T11:39:30;2.70;;;1.58;;
38972;SDS011;25333;50.762;4.470;2022-07-12T11:41:58;3.45;;;1.52;;
38972;SDS011;25333;50.762;4.470;2022-07-12T11:47:18;2.47;;;1.65;;
38972;SDS011;25333;50.762;4.470;2022-07-12T11:49:46;2.20;;;1.48;;
38972;SDS011;25333;50.762;4.470;2022-07-12T11:52:16;2.67;;;1.40;;
38972;SDS011;25333;50.762;4.470;2022-07-12T11:54:43;2.40;;;1.55;;
38972;SDS011;25333;50.762;4.470;2022-07-12T11:57:13;2.50;;;1.63;;
38972;SDS011;25333;50.762;4.470;2022-07-12T11:59:40;3.10;;;1.60;;
38972;SDS011;25333;50.762;4.470;2022-07-12T12:02:06;3.10;;;1.83;;
38972;SDS011;25333;50.762;4.470;2022-07-12T12:07:29;2.47;;;1.58;;
38972;SDS011;25333;50.762;4.470;2022-07-12T12:12:48;2.15;;;1.52;;
38972;SDS011;25333;50.762;4.470;2022-07-12T12:15:19;2.30;;;1.50;;
38972;SDS011;25333;50.762;4.470;2022-07-12T12:17:52;2.83;;;1.27;;
38972;SDS011;25333;50.762;4.470;2022-07-12T12:20:21;3.47;;;2.07;;
38972;SDS011;25333;50.762;4.470;2022-07-12T12:23:00;2.13;;;1.60;;
38972;SDS011;25333;50.762;4.470;2022-07-12T12:25:27;2.75;;;1.70;;
38972;SDS011;25333;50.762;4.470;2022-07-12T12:27:55;2.25;;;1.52;;
38972;SDS011;25333;50.762;4.470;2022-07-12T12:30:22;2.25;;;1.27;;
38972;SDS011;25333;50.762;4.470;2022-07-12T12:35:20;2.28;;;1.00;;
38972;SDS011;25333;50.762;4.470;2022-07-12T12:37:57;2.22;;;1.10;;
38972;SDS011;25333;50.762;4.470;2022-07-12T12:40:25;3.95;;;1.35;;
38972;SDS011;25333;50.762;4.470;2022-07-12T12:43:04;2.78;;;1.90;;
38972;SDS011;25333;50.762;4.470;2022-07-12T12:45:33;3.25;;;1.58;;
38972;SDS011;25333;50.762;4.470;2022-07-12T12:48:00;2.47;;;1.38;;
38972;SDS011;25333;50.762;4.470;2022-07-12T12:50:41;2.58;;;1.50;;
38972;SDS011;25333;50.762;4.470;2022-07-12T12:53:17;2.97;;;1.57;;
38972;SDS011;25333;50.762;4.470;2022-07-12T12:55:46;2.38;;;1.83;;
38972;SDS011;25333;50.762;4.470;2022-07-12T12:58:15;2.78;;;1.15;;
38972;SDS011;25333;50.762;4.470;2022-07-12T13:00:42;2.30;;;1.42;;
38972;SDS011;25333;50.762;4.470;2022-07-12T13:03:10;2.30;;;1.73;;
38972;SDS011;25333;50.762;4.470;2022-07-12T13:05:38;1.98;;;1.35;;
38972;SDS011;25333;50.762;4.470;2022-07-12T13:08:05;4.00;;;1.93;;
38972;SDS011;25333;50.762;4.470;2022-07-12T13:10:32;1.65;;;1.17;;
38972;SDS011;25333;50.762;4.470;2022-07-12T13:12:58;2.33;;;1.40;;
38972;SDS011;25333;50.762;4.470;2022-07-12T13:15:25;2.83;;;1.93;;
38972;SDS011;25333;50.762;4.470;2022-07-12T13:17:52;2.53;;;1.65;;
38972;SDS011;25333;50.762;4.470;2022-07-12T13:20:18;3.00;;;1.98;;
38972;SDS011;25333;50.762;4.470;2022-07-12T13:22:44;3.20;;;1.50;;
38972;SDS011;25333;50.762;4.470;2022-07-12T13:25:10;2.60;;;1.60;;
38972;SDS011;25333;50.762;4.470;2022-07-12T13:27:38;2.95;;;1.52;;
38972;SDS011;25333;50.762;4.470;2022-07-12T13:30:04;3.15;;;1.52;;
38972;SDS011;25333;50.762;4.470;2022-07-12T13:32:32;2.55;;;1.60;;
38972;SDS011;25333;50.762;4.470;2022-07-12T13:35:01;2.63;;;1.50;;
38972;SDS011;25333;50.762;4.470;2022-07-12T13:37:28;3.53;;;1.95;;
38972;SDS011;25333;50.762;4.470;2022-07-12T13:39:53;3.42;;;1.80;;
38972;SDS011;25333;50.762;4.470;2022-07-12T13:42:41;2.33;;;1.63;;
38972;SDS011;25333;50.762;4.470;2022-07-12T13:45:08;2.92;;;1.98;;
38972;SDS011;25333;50.762;4.470;2022-07-12T13:47:36;2.58;;;1.67;;
38972;SDS011;25333;50.762;4.470;2022-07-12T13:50:03;2.70;;;1.15;;
38972;SDS011;25333;50.762;4.470;2022-07-12T13:52:30;2.33;;;1.60;;
38972;SDS011;25333;50.762;4.470;2022-07-12T13:54:56;2.23;;;1.50;;
38972;SDS011;25333;50.762;4.470;2022-07-12T13:57:21;1.98;;;1.45;;
38972;SDS011;25333;50.762;4.470;2022-07-12T13:59:47;2.20;;;1.58;;
38972;SDS011;25333;50.762;4.470;2022-07-12T14:02:13;4.03;;;1.42;;
38972;SDS011;25333;50.762;4.470;2022-07-12T14:04:39;2.42;;;1.20;;
38972;SDS011;25333;50.762;4.470;2022-07-12T14:07:04;3.78;;;1.85;;
38972;SDS011;25333;50.762;4.470;2022-07-12T14:09:30;3.43;;;1.77;;
38972;SDS011;25333;50.762;4.470;2022-07-12T14:11:56;2.10;;;1.33;;
38972;SDS011;25333;50.762;4.470;2022-07-12T14:14:22;2.40;;;1.35;;
38972;SDS011;25333;50.762;4.470;2022-07-12T14:17:06;1.87;;;1.27;;
38972;SDS011;25333;50.762;4.470;2022-07-12T14:19:32;2.93;;;1.27;;
38972;SDS011;25333;50.762;4.470;2022-07-12T14:21:57;2.13;;;1.42;;
38972;SDS011;25333;50.762;4.470;2022-07-12T14:24:23;4.32;;;1.60;;
38972;SDS011;25333;50.762;4.470;2022-07-12T14:26:49;2.60;;;1.50;;
38972;SDS011;25333;50.762;4.470;2022-07-12T14:29:15;1.88;;;1.10;;
38972;SDS011;25333;50.762;4.470;2022-07-12T14:31:41;2.95;;;1.40;;
38972;SDS011;25333;50.762;4.470;2022-07-12T14:34:07;2.53;;;1.10;;
38972;SDS011;25333;50.762;4.470;2022-07-12T14:36:32;2.63;;;0.87;;
38972;SDS011;25333;50.762;4.470;2022-07-12T14:38:59;2.72;;;0.88;;
38972;SDS011;25333;50.762;4.470;2022-07-12T14:41:25;1.55;;;0.82;;
38972;SDS011;25333;50.762;4.470;2022-07-12T14:43:51;2.13;;;0.88;;
38972;SDS011;25333;50.762;4.470;2022-07-12T14:46:16;1.20;;;1.02;;
38972;SDS011;25333;50.762;4.470;2022-07-12T14:48:42;4.63;;;1.10;;
38972;SDS011;25333;50.762;4.470;2022-07-12T14:51:08;3.53;;;1.05;;
38972;SDS011;25333;50.762;4.470;2022-07-12T14:53:34;1.90;;;0.65;;
38972;SDS011;25333;50.762;4.470;2022-07-12T14:56:01;1.70;;;0.93;;
38972;SDS011;25333;50.762;4.470;2022-07-12T14:58:26;2.80;;;1.33;;
38972;SDS011;25333;50.762;4.470;2022-07-12T15:03:30;2.30;;;1.30;;
38972;SDS011;25333;50.762;4.470;2022-07-12T15:05:59;2.35;;;1.10;;
38972;SDS011;25333;50.762;4.470;2022-07-12T15:08:24;3.83;;;1.13;;
38972;SDS011;25333;50.762;4.470;2022-07-12T15:10:50;3.25;;;1.30;;
38972;SDS011;25333;50.762;4.470;2022-07-12T15:13:16;2.85;;;1.30;;